Time;durP1;ratioP1;P1;durP2;ratioP2;P2;SDS_P1;SDS_P2;PMS_P1;PMS_P2;Temp;Humidity;BMP_temperature;BMP_pressure;BME280_temperature;BME280_humidity;BME280_pressure;Samples;Min_cycle;Max_cycle;Signal;HPM_P1;HPM_P2
2021/03/19 00:00:45;;;;;;;17.60;7.73;;;;;;;2.20;77.43;100281.83;125990;1099;104271;-77
2021/03/19 00:03:19;;;;;;;17.03;7.83;;;;;;;2.14;77.86;100278.05;125233;1099;104156;-79
2021/03/19 00:05:48;;;;;;;19.73;8.37;;;;;;;2.09;77.96;100271.69;125136;1099;104297;-78
2021/03/19 00:08:20;;;;;;;16.70;8.03;;;;;;;2.06;77.65;100273.19;125212;1099;104158;-78
2021/03/19 00:10:49;;;;;;;15.97;7.70;;;;;;;2.03;77.54;100267.81;125191;1099;104174;-78
2021/03/19 00:13:18;;;;;;;16.00;7.70;;;;;;;2.01;77.90;100264.20;125157;1099;108136;-78
2021/03/19 00:15:47;;;;;;;15.83;7.17;;;;;;;1.98;77.53;100267.50;125161;1098;104178;-78
2021/03/19 00:18:16;;;;;;;16.40;7.60;;;;;;;1.95;77.99;100263.01;125165;1099;104146;-78
2021/03/19 00:20:47;;;;;;;16.93;8.10;;;;;;;1.94;77.62;100262.91;125014;1099;104159;-78
2021/03/19 00:23:17;;;;;;;16.13;7.37;;;;;;;1.94;78.02;100260.32;126039;1099;104299;-77
2021/03/19 00:25:46;;;;;;;16.23;7.63;;;;;;;1.93;78.54;100254.26;125110;1099;104152;-77
2021/03/19 00:28:15;;;;;;;15.63;7.10;;;;;;;1.95;77.66;100264.71;125110;1099;104159;-78
2021/03/19 00:30:45;;;;;;;13.65;7.15;;;;;;;1.91;77.83;100265.30;125224;1099;104163;-78
2021/03/19 00:33:15;;;;;;;14.83;6.63;;;;;;;1.89;78.21;100262.60;125089;1099;104143;-78
2021/03/19 00:35:45;;;;;;;14.43;6.87;;;;;;;1.88;77.82;100257.33;125197;1099;104281;-78
2021/03/19 00:38:14;;;;;;;15.30;7.60;;;;;;;1.86;78.16;100253.75;125292;1099;104713;-78
2021/03/19 00:40:44;;;;;;;15.80;7.13;;;;;;;1.85;77.59;100257.13;125167;1099;104174;-77
2021/03/19 00:43:15;;;;;;;14.30;6.80;;;;;;;1.83;78.08;100254.43;125210;1099;104156;-78
2021/03/19 00:45:46;;;;;;;16.10;7.17;;;;;;;1.82;78.37;100252.62;125168;1102;104278;-78
2021/03/19 00:48:15;;;;;;;15.77;7.50;;;;;;;1.81;78.12;100240.50;125222;1099;104293;-78
2021/03/19 00:50:45;;;;;;;14.90;6.80;;;;;;;1.80;78.18;100239.59;125132;1099;104150;-77
2021/03/19 00:53:14;;;;;;;14.90;6.87;;;;;;;1.80;78.13;100238.70;125095;1099;104172;-78
2021/03/19 00:55:43;;;;;;;16.00;7.03;;;;;;;1.78;78.02;100240.30;125157;1099;104341;-77
2021/03/19 00:58:15;;;;;;;16.53;7.80;;;;;;;1.79;78.31;100242.99;125188;1099;104223;-77
2021/03/19 01:00:44;;;;;;;15.07;7.00;;;;;;;1.80;78.51;100241.29;125234;1099;104140;-77
2021/03/19 01:03:13;;;;;;;15.90;7.20;;;;;;;1.80;77.86;100247.35;125128;1099;104150;-77
2021/03/19 01:05:44;;;;;;;17.27;7.93;;;;;;;1.80;78.50;100244.77;125201;1099;104287;-78
2021/03/19 01:08:15;;;;;;;17.97;7.33;;;;;;;1.80;78.15;100247.35;125096;1099;104239;-78
2021/03/19 01:10:49;;;;;;;17.90;7.93;;;;;;;1.80;78.32;100247.35;125050;1099;104370;-78
2021/03/19 01:13:19;;;;;;;19.33;7.30;;;;;;;1.79;77.67;100252.42;125143;1099;104152;-77
2021/03/19 01:15:49;;;;;;;16.23;7.90;;;;;;;1.75;78.57;100240.98;125214;1099;104204;-78
2021/03/19 01:18:22;;;;;;;15.60;6.70;;;;;;;1.74;77.89;100246.94;125234;1099;104175;-78
2021/03/19 01:20:51;;;;;;;15.93;7.20;;;;;;;1.72;78.44;100248.54;125113;1099;104277;-78
2021/03/19 01:23:25;;;;;;;14.63;6.53;;;;;;;1.69;78.21;100244.86;125141;1099;104174;-78
2021/03/19 01:25:55;;;;;;;12.87;6.83;;;;;;;1.68;78.28;100243.06;125155;1099;104204;-77
2021/03/19 01:28:24;;;;;;;15.27;6.73;;;;;;;1.66;78.47;100245.54;125292;1099;104181;-77
2021/03/19 01:30:53;;;;;;;13.60;6.80;;;;;;;1.64;78.19;100247.14;125199;1099;104168;-77
2021/03/19 01:33:23;;;;;;;16.87;7.43;;;;;;;1.65;77.99;100246.33;125127;1099;104146;-77
2021/03/19 01:35:52;;;;;;;17.00;8.03;;;;;;;1.64;78.22;100247.14;125157;1099;104281;-77
2021/03/19 01:38:21;;;;;;;18.17;8.33;;;;;;;1.65;78.25;100248.91;125181;1099;104175;-78
2021/03/19 01:40:50;;;;;;;15.37;7.70;;;;;;;1.65;78.30;100246.33;125155;1099;104146;-78
2021/03/19 01:43:19;;;;;;;15.03;7.07;;;;;;;1.64;78.07;100249.73;125095;1099;104159;-79
2021/03/19 01:46:11;;;;;;;18.90;8.20;;;;;;;1.63;78.79;100247.92;125130;1099;104197;-78
2021/03/19 01:49:06;;;;;;;17.13;7.87;;;;;;;1.64;78.53;100252.31;126290;1099;104156;-77
2021/03/19 01:52:01;;;;;;;18.17;8.67;;;;;;;1.64;78.47;100253.98;125085;1099;104598;-78
2021/03/19 01:54:56;;;;;;;19.23;8.20;;;;;;;1.63;78.22;100255.68;125106;1099;104569;-77
2021/03/19 01:57:51;;;;;;;18.30;8.33;;;;;;;1.63;78.77;100250.51;125192;1099;104576;-77
2021/03/19 02:00:46;;;;;;;16.67;7.50;;;;;;;1.61;78.25;100252.11;125248;1099;104820;-78
2021/03/19 02:03:41;;;;;;;18.10;8.20;;;;;;;1.63;78.76;100254.80;125223;1099;104753;-78
2021/03/19 02:06:36;;;;;;;18.70;9.20;;;;;;;1.63;78.35;100255.68;125219;1099;104281;-77
2021/03/19 02:09:31;;;;;;;18.85;8.33;;;;;;;1.66;78.87;100261.06;125111;1099;104172;-77
2021/03/19 02:12:26;;;;;;;18.60;8.40;;;;;;;1.67;78.39;100257.69;125132;1099;104182;-78
2021/03/19 02:15:21;;;;;;;17.87;8.60;;;;;;;1.67;78.34;100260.28;125148;1099;104175;-78
2021/03/19 02:18:16;;;;;;;16.93;8.43;;;;;;;1.67;78.27;100262.86;125250;1099;104172;-77
2021/03/19 02:21:11;;;;;;;19.07;8.83;;;;;;;1.68;78.82;100256.88;125147;1099;104165;-78
2021/03/19 02:23:51;;;;;;;;;;;;;;;1.70;78.57;100256.98;125130;1098;104191;-77
2021/03/19 02:26:46;;;;;;;17.23;8.37;;;;;;;1.69;78.45;100256.09;125220;1099;104143;-78
2021/03/19 02:29:41;;;;;;;16.97;7.60;;;;;;;1.68;78.62;100254.29;125213;1099;104162;-77
2021/03/19 02:32:13;;;;;;;18.15;8.05;;;;;;;1.69;78.85;100256.09;125239;1099;104185;-78
2021/03/19 02:34:45;;;;;;;17.97;8.40;;;;;;;1.70;78.97;100262.16;126195;1099;104297;-78
2021/03/19 02:37:17;;;;;;;18.13;8.87;;;;;;;1.69;78.46;100256.09;125230;1099;104142;-77
2021/03/19 02:39:46;;;;;;;18.30;8.47;;;;;;;1.69;78.41;100260.38;125201;1102;104187;-78
2021/03/19 02:42:19;;;;;;;18.83;8.93;;;;;;;1.67;78.91;100254.19;125220;1099;104203;-78
2021/03/19 02:44:48;;;;;;;18.97;8.90;;;;;;;1.66;79.03;100255.00;125147;1099;104156;-78
2021/03/19 02:47:18;;;;;;;18.70;8.90;;;;;;;1.64;79.01;100252.31;125183;1099;104270;-77
2021/03/19 02:49:49;;;;;;;18.07;8.63;;;;;;;1.61;79.09;100263.34;125209;1099;104156;-78
2021/03/19 02:52:20;;;;;;;20.57;9.57;;;;;;;1.61;79.21;100249.52;125252;1099;104223;-77
2021/03/19 02:54:50;;;;;;;17.90;8.87;;;;;;;1.59;78.85;100251.08;125142;1099;104634;-79
2021/03/19 02:57:19;;;;;;;18.33;8.60;;;;;;;1.60;79.09;100251.19;125239;1099;104197;-77
2021/03/19 02:59:48;;;;;;;18.23;9.13;;;;;;;1.60;78.78;100255.47;125222;1099;104144;-77
2021/03/19 03:02:17;;;;;;;19.67;9.77;;;;;;;1.61;78.81;100254.69;125148;1098;104325;-77
2021/03/19 03:04:46;;;;;;;21.17;9.97;;;;;;;1.65;78.67;100256.67;125162;1099;104290;-79
2021/03/19 03:07:22;;;;;;;19.80;9.20;;;;;;;1.67;79.19;100252.52;125124;1099;104149;-77
2021/03/19 03:09:51;;;;;;;20.80;10.03;;;;;;;1.67;79.16;100249.93;126313;1099;104143;-78
2021/03/19 03:12:23;;;;;;;18.73;8.90;;;;;;;1.70;79.33;100262.16;125226;1099;104168;-78
2021/03/19 03:14:53;;;;;;;18.83;9.00;;;;;;;1.72;79.23;100258.89;126169;1099;104150;-78
2021/03/19 03:17:23;;;;;;;18.57;8.17;;;;;;;1.72;79.13;100261.47;125214;1099;104149;-79
2021/03/19 03:19:52;;;;;;;19.93;9.57;;;;;;;1.74;79.06;100252.11;125219;1099;104208;-78
2021/03/19 03:22:21;;;;;;;21.93;9.23;;;;;;;1.81;79.15;100256.03;125194;1099;104372;-78
2021/03/19 03:24:50;;;;;;;18.43;9.33;;;;;;;1.85;79.02;100263.18;125185;1099;104166;-78
2021/03/19 03:27:20;;;;;;;19.40;9.03;;;;;;;1.87;79.30;100258.11;125103;1099;104197;-77
2021/03/19 03:29:49;;;;;;;19.13;9.27;;;;;;;1.88;79.05;100257.33;125204;1099;104284;-79
2021/03/19 03:32:19;;;;;;;24.70;9.77;;;;;;;1.87;79.24;100268.45;125152;1099;104185;-79
2021/03/19 03:34:48;;;;;;;19.30;9.33;;;;;;;1.85;79.21;100268.36;125227;1099;104227;-78
2021/03/19 03:37:20;;;;;;;19.60;9.13;;;;;;;1.80;79.16;100259.41;125219;1099;104147;-78
2021/03/19 03:39:49;;;;;;;20.23;10.20;;;;;;;1.73;78.78;100258.10;125191;1099;104226;-78
2021/03/19 03:42:18;;;;;;;21.40;10.87;;;;;;;1.71;79.03;100263.95;125200;1099;104178;-78
2021/03/19 03:44:47;;;;;;;20.40;9.60;;;;;;;1.69;78.95;100270.73;126292;1099;104806;-79
2021/03/19 03:47:16;;;;;;;22.30;10.23;;;;;;;1.67;79.12;100277.47;125144;1099;104325;-78
2021/03/19 03:49:45;;;;;;;19.33;9.63;;;;;;;1.65;78.83;100274.77;125430;1099;104171;-78
2021/03/19 03:52:14;;;;;;;20.90;9.40;;;;;;;1.67;79.67;100280.05;125178;1099;104149;-78
2021/03/19 03:54:42;;;;;;;18.25;8.00;;;;;;;1.66;79.23;100276.58;125248;1099;104349;-77
2021/03/19 03:57:11;;;;;;;20.00;9.15;;;;;;;1.65;79.32;100274.77;125211;1099;104185;-77
2021/03/19 03:59:40;;;;;;;20.73;10.17;;;;;;;1.66;79.02;100279.17;125155;1099;104149;-78
2021/03/19 04:02:20;;;;;;;19.67;9.40;;;;;;;1.69;79.47;100281.08;126335;1099;104307;-78
2021/03/19 04:04:50;;;;;;;18.70;9.57;;;;;;;1.72;79.53;100281.28;125181;1099;104225;-78
2021/03/19 04:07:20;;;;;;;21.03;10.03;;;;;;;1.77;79.08;100283.36;125073;1099;104316;-79
2021/03/19 04:09:51;;;;;;;19.67;9.90;;;;;;;1.80;79.51;100280.98;126197;1099;104269;-77
2021/03/19 04:12:20;;;;;;;20.23;9.43;;;;;;;1.80;79.60;100280.98;125162;1099;104171;-78
2021/03/19 04:14:50;;;;;;;21.77;10.27;;;;;;;1.80;79.61;100280.98;125112;1099;104216;-78
2021/03/19 04:17:26;;;;;;;20.17;9.57;;;;;;;1.78;79.33;100280.00;126111;1099;104208;-78
2021/03/19 04:19:55;;;;;;;20.17;10.33;;;;;;;1.74;79.13;100280.57;125214;1099;104197;-77
2021/03/19 04:22:25;;;;;;;23.33;10.83;;;;;;;1.75;79.16;100281.48;126305;1098;104522;-78
2021/03/19 04:24:55;;;;;;;21.63;10.53;;;;;;;1.75;79.36;100284.96;125195;1099;104205;-78
2021/03/19 04:27:28;;;;;;;22.07;11.00;;;;;;;1.77;79.38;100283.36;125232;1099;104286;-77
2021/03/19 04:29:58;;;;;;;20.23;10.53;;;;;;;1.83;79.09;100284.59;125335;1099;104147;-78
2021/03/19 04:32:27;;;;;;;20.23;9.87;;;;;;;1.88;79.11;100283.20;126231;1099;104168;-77
2021/03/19 04:34:55;;;;;;;20.15;9.85;;;;;;;1.87;79.37;100282.31;126227;1099;104152;-77
2021/03/19 04:37:24;;;;;;;21.33;10.50;;;;;;;1.88;79.03;100283.20;126113;1099;104264;-77
2021/03/19 04:39:53;;;;;;;21.40;9.67;;;;;;;1.90;79.71;100289.36;126240;1099;104198;-77
2021/03/19 04:42:22;;;;;;;19.80;9.45;;;;;;;1.91;79.70;100292.05;126269;1099;104158;-77
2021/03/19 04:44:51;;;;;;;20.90;10.37;;;;;;;1.92;79.28;100301.63;126292;1099;104271;-78
2021/03/19 04:47:20;;;;;;;19.93;9.50;;;;;;;1.93;79.61;100294.74;125346;1099;104211;-78
2021/03/19 04:49:48;;;;;;;21.50;10.07;;;;;;;1.96;79.64;100297.53;126291;1098;104206;-78
2021/03/19 04:52:17;;;;;;;18.80;9.07;;;;;;;2.02;79.19;100304.83;126296;1099;104156;-78
2021/03/19 04:54:46;;;;;;;19.17;9.30;;;;;;;2.04;79.33;100298.97;126263;1099;104280;-78
2021/03/19 04:57:15;;;;;;;18.50;9.50;;;;;;;2.07;79.41;100300.84;126220;1099;104242;-78
2021/03/19 04:59:44;;;;;;;19.83;10.13;;;;;;;2.10;79.42;100303.63;126312;1099;104637;-77
2021/03/19 05:02:13;;;;;;;20.70;10.10;;;;;;;2.10;79.30;100295.87;125389;1099;104159;-78
2021/03/19 05:04:41;;;;;;;20.87;10.27;;;;;;;2.07;79.33;100306.02;126262;1099;104492;-77
2021/03/19 05:07:10;;;;;;;20.30;9.60;;;;;;;2.05;79.65;100299.86;126028;1099;105492;-76
2021/03/19 05:09:39;;;;;;;19.70;9.83;;;;;;;2.05;79.63;100303.33;126097;1099;104152;-76
2021/03/19 05:12:08;;;;;;;20.73;9.37;;;;;;;2.05;79.37;100299.86;126273;1099;104156;-77
2021/03/19 05:14:37;;;;;;;19.83;9.10;;;;;;;2.05;79.36;100303.33;126142;1099;104175;-76
2021/03/19 05:17:06;;;;;;;20.57;9.60;;;;;;;2.07;79.62;100299.17;126114;1099;104264;-76
2021/03/19 05:19:36;;;;;;;20.60;9.73;;;;;;;2.07;79.71;100301.77;126067;1099;104140;-78
2021/03/19 05:22:05;;;;;;;20.95;10.00;;;;;;;2.10;79.58;100306.22;125326;1098;104240;-77
2021/03/19 05:24:34;;;;;;;18.83;9.40;;;;;;;2.15;79.84;100310.92;126203;1099;104213;-77
2021/03/19 05:27:04;;;;;;;22.40;9.73;;;;;;;2.20;79.49;100305.13;125187;1099;104252;-77
2021/03/19 05:29:33;;;;;;;19.87;9.73;;;;;;;2.24;79.66;100300.25;125360;1099;118664;-77
2021/03/19 05:32:02;;;;;;;21.40;10.83;;;;;;;2.30;79.46;100302.36;126068;1099;104144;-77
2021/03/19 05:34:31;;;;;;;25.17;13.43;;;;;;;2.36;79.73;100304.47;126048;1099;104188;-78
2021/03/19 05:37:00;;;;;;;26.23;12.87;;;;;;;2.42;79.45;100310.05;126069;1099;104220;-78
2021/03/19 05:39:29;;;;;;;22.73;12.10;;;;;;;2.44;80.02;100317.09;126058;1099;104185;-77
2021/03/19 05:41:59;;;;;;;26.60;13.77;;;;;;;2.43;79.94;100317.91;125160;1102;104412;-77
2021/03/19 05:44:28;;;;;;;23.43;12.67;;;;;;;2.44;79.74;100319.69;125199;1102;104383;-78
2021/03/19 05:47:02;;;;;;;25.70;13.57;;;;;;;2.46;79.63;100319.78;125236;1102;104910;-78
2021/03/19 05:49:33;;;;;;;22.10;11.87;;;;;;;2.44;79.74;100319.69;125180;1102;104239;-77
2021/03/19 05:52:18;;;;;;;22.10;11.07;;;;;;;2.44;79.44;100322.27;125221;1102;104149;-77
2021/03/19 05:54:48;;;;;;;21.80;10.40;;;;;;;2.48;79.28;100328.58;125274;1101;104146;-77
2021/03/19 05:57:23;;;;;;;22.57;10.53;;;;;;;2.49;79.67;100331.27;125201;1102;104389;-77
2021/03/19 05:59:55;;;;;;;21.03;10.17;;;;;;;2.51;78.98;100329.66;125215;1102;104300;-77
2021/03/19 06:02:28;;;;;;;21.83;10.40;;;;;;;2.54;79.48;100330.64;125206;1101;104459;-76
2021/03/19 06:05:06;;;;;;;18.60;8.80;;;;;;;2.57;78.85;100344.72;125312;1102;104149;-77
2021/03/19 06:07:44;;;;;;;19.87;9.20;;;;;;;2.59;79.80;100340.52;125186;1100;104594;-77
2021/03/19 06:10:32;;;;;;;22.90;8.73;;;;;;;2.65;79.13;100342.59;125164;1102;106548;-77
2021/03/19 06:13:18;;;;;;;18.63;9.13;;;;;;;2.73;79.79;100340.50;125327;1102;104146;-76
2021/03/19 06:15:50;;;;;;;19.20;9.40;;;;;;;2.79;79.67;100348.66;126068;1099;104229;-76
2021/03/19 06:18:24;;;;;;;18.43;8.77;;;;;;;2.85;79.48;100344.80;125183;1099;104272;-76
2021/03/19 06:21:01;;;;;;;19.57;8.93;;;;;;;2.96;78.93;100342.89;125228;1099;104310;-78
2021/03/19 06:23:31;;;;;;;21.67;9.63;;;;;;;3.04;79.40;100345.97;126094;1098;104235;-77
2021/03/19 06:26:04;;;;;;;17.37;8.90;;;;;;;3.06;79.03;100339.17;126135;1099;104155;-77
2021/03/19 06:28:37;;;;;;;20.97;9.27;;;;;;;3.06;79.58;100355.61;126039;1099;104200;-77
2021/03/19 06:31:21;;;;;;;19.77;9.23;;;;;;;3.08;79.36;100347.05;126030;1098;104185;-77
2021/03/19 06:34:05;;;;;;;21.47;10.20;;;;;;;3.13;78.91;100346.55;125151;1100;104412;-77
2021/03/19 06:36:52;;;;;;;20.73;10.27;;;;;;;3.16;79.38;100346.70;126026;1099;104631;-78
2021/03/19 06:39:24;;;;;;;20.53;10.00;;;;;;;3.26;78.91;100358.58;125925;1099;104143;-76
2021/03/19 06:42:07;;;;;;;19.87;8.77;;;;;;;3.33;79.51;100359.84;125885;1099;104235;-76
2021/03/19 06:44:36;;;;;;;22.57;9.03;;;;;;;3.37;79.05;100354.06;125814;1099;104251;-76
2021/03/19 06:47:09;;;;;;;19.30;9.10;;;;;;;3.42;78.96;100357.83;125742;1099;104293;-76
2021/03/19 06:49:55;;;;;;;19.10;8.90;;;;;;;3.52;79.09;100354.09;125894;1098;104428;-77
2021/03/19 06:52:29;;;;;;;18.70;9.50;;;;;;;3.58;78.96;100355.39;125838;1099;104265;-76
2021/03/19 06:55:00;;;;;;;22.37;9.40;;;;;;;3.63;78.83;100353.08;125790;1099;105692;-78
2021/03/19 06:57:45;;;;;;;20.93;9.93;;;;;;;3.70;78.84;100359.52;125857;1099;101988;-75
2021/03/19 07:00:32;;;;;;;17.35;8.93;;;;;;;3.80;79.01;100361.86;125156;1099;104265;-77
2021/03/19 07:03:16;;;;;;;21.27;9.37;;;;;;;3.88;78.91;100364.91;125153;1099;104219;-75
2021/03/19 07:05:58;;;;;;;18.87;8.33;;;;;;;3.91;78.38;100354.72;125956;1099;105221;-76
2021/03/19 07:08:34;;;;;;;20.90;9.47;;;;;;;3.95;79.18;100348.91;126034;1099;104162;-76
2021/03/19 07:11:27;;;;;;;22.13;9.97;;;;;;;4.04;78.45;100353.77;126081;1099;104217;-77
2021/03/19 07:14:37;;;;;;;20.10;9.53;;;;;;;4.16;78.88;100353.58;126016;1099;104178;-76
2021/03/19 07:17:19;;;;;;;20.63;10.13;;;;;;;4.24;78.60;100349.72;125869;1099;104181;-76
2021/03/19 07:20:02;;;;;;;21.03;10.13;;;;;;;4.27;78.82;100348.22;125139;1099;104166;-77
2021/03/19 07:22:48;;;;;;;20.83;10.80;;;;;;;4.31;78.66;100357.08;125907;1099;104338;-77
2021/03/19 07:25:38;;;;;;;21.40;10.90;;;;;;;4.38;78.51;100350.53;125940;1099;104146;-78
2021/03/19 07:28:25;;;;;;;20.93;10.40;;;;;;;4.47;78.83;100358.86;125977;1098;104185;-77
2021/03/19 07:31:12;;;;;;;22.20;10.53;;;;;;;4.55;78.65;100356.70;125821;1099;104268;-77
2021/03/19 07:34:03;;;;;;;25.53;12.53;;;;;;;4.62;78.71;100357.14;125110;1102;104159;-77
2021/03/19 07:36:49;;;;;;;22.00;11.15;;;;;;;4.76;78.50;100362.25;125080;1101;104159;-75
2021/03/19 07:39:52;;;;;;;24.87;10.43;;;;;;;4.83;78.35;100361.77;125144;1102;104235;-76
2021/03/19 07:42:43;;;;;;;23.37;10.43;;;;;;;4.86;78.00;100352.45;125229;1102;118571;-76
2021/03/19 07:45:26;;;;;;;21.13;11.03;;;;;;;4.90;78.06;100352.63;125158;1102;104166;-76
2021/03/19 07:48:07;;;;;;;21.10;10.60;;;;;;;4.93;77.76;100356.28;125114;1103;104312;-77
2021/03/19 07:50:45;;;;;;;22.43;10.50;;;;;;;4.94;78.30;100352.88;125041;1100;104236;-76
2021/03/19 07:53:32;;;;;;;22.17;11.40;;;;;;;4.97;78.13;100353.05;125033;1102;104415;-77
2021/03/19 07:56:09;;;;;;;21.27;10.67;;;;;;;4.95;78.13;100344.25;124990;1102;104209;-77
2021/03/19 07:58:50;;;;;;;21.90;11.83;;;;;;;4.98;78.33;100344.42;124875;1102;104309;-77
2021/03/19 08:01:27;;;;;;;23.80;11.20;;;;;;;5.00;78.25;100349.70;125028;1103;104415;-76
2021/03/19 08:04:11;;;;;;;21.20;11.27;;;;;;;4.92;78.23;100349.28;124978;1102;102394;-76
2021/03/19 08:06:45;;;;;;;26.73;11.65;;;;;;;4.82;77.77;100354.80;125134;1102;104293;-76
2021/03/19 08:09:29;;;;;;;20.50;10.90;;;;;;;4.70;77.98;100351.50;125088;1102;104329;-76
2021/03/19 08:12:07;;;;;;;23.60;11.00;;;;;;;4.58;78.27;100349.08;124988;1102;104287;-78
2021/03/19 08:14:53;;;;;;;25.57;12.50;;;;;;;4.51;78.24;100347.84;125003;1102;104322;-76
2021/03/19 08:17:45;;;;;;;20.83;10.97;;;;;;;4.53;78.46;100351.42;124973;1102;104159;-77
2021/03/19 08:20:40;;;;;;;26.53;11.10;;;;;;;4.49;78.64;100360.75;125155;1102;104153;-77
2021/03/19 08:23:18;;;;;;;22.47;11.60;;;;;;;4.47;78.51;100356.26;125080;1102;118974;-77
2021/03/19 08:25:52;;;;;;;21.93;10.43;;;;;;;4.46;78.58;100357.09;125074;1102;104476;-77
2021/03/19 08:28:31;;;;;;;26.33;10.97;;;;;;;4.47;78.28;100353.66;125044;1099;104172;-77
2021/03/19 08:31:25;;;;;;;21.40;10.43;;;;;;;4.53;78.37;100356.61;125010;1099;104175;-75
2021/03/19 08:34:05;;;;;;;19.60;10.37;;;;;;;4.63;78.67;100353.75;124993;1099;105879;-75
2021/03/19 08:36:42;;;;;;;20.30;10.43;;;;;;;4.78;77.93;100363.22;125041;1099;104152;-75
2021/03/19 08:39:22;;;;;;;20.53;9.73;;;;;;;4.92;77.93;100357.08;124971;1099;104321;-76
2021/03/19 08:42:01;;;;;;;21.87;10.57;;;;;;;4.98;77.53;100352.22;124982;1099;104785;-75
2021/03/19 08:44:37;;;;;;;21.07;10.27;;;;;;;5.07;77.80;100356.17;125010;1103;104254;-76
2021/03/19 08:47:16;;;;;;;22.57;9.53;;;;;;;5.08;78.01;100348.45;125332;1099;104184;-76
2021/03/19 08:49:56;;;;;;;19.73;9.83;;;;;;;5.12;77.62;100350.39;125915;1099;104233;-76
2021/03/19 08:52:36;;;;;;;20.37;10.20;;;;;;;5.13;77.65;100346.98;125877;1099;104194;-76
2021/03/19 08:55:25;;;;;;;19.27;9.40;;;;;;;5.21;77.88;100350.02;125212;1099;104216;-77
2021/03/19 08:57:57;;;;;;;18.43;8.97;;;;;;;5.25;77.83;100351.98;125357;1099;104223;-76
2021/03/19 09:00:52;;;;;;;17.83;8.87;;;;;;;5.21;77.56;100352.61;125970;1099;104181;-77
2021/03/19 09:03:47;;;;;;;17.37;9.17;;;;;;;5.23;77.46;100350.98;125990;1099;104160;-77
2021/03/19 09:06:23;;;;;;;20.67;9.53;;;;;;;5.30;77.31;100350.52;125866;1099;104351;-77
2021/03/19 09:09:11;;;;;;;16.10;8.23;;;;;;;5.43;77.24;100343.38;125977;1099;104145;-76
2021/03/19 09:12:04;;;;;;;19.97;9.50;;;;;;;5.61;77.22;100344.36;125878;1099;104210;-76
2021/03/19 09:14:56;;;;;;;16.03;8.40;;;;;;;5.86;77.37;100345.62;125865;1099;106444;-76
2021/03/19 09:21:24;;;;;;;14.93;7.53;;;;;;;6.02;76.98;100343.03;126125;1099;104413;-76
2021/03/19 09:24:07;;;;;;;14.50;7.50;;;;;;;6.06;76.35;100351.89;125269;1099;105672;-76
2021/03/19 09:26:47;;;;;;;13.93;6.90;;;;;;;6.07;76.41;100344.16;125246;1100;104315;-76
2021/03/19 09:29:35;;;;;;;14.60;7.30;;;;;;;6.03;76.27;100346.53;125948;1099;104223;-76
2021/03/19 09:32:41;;;;;;;15.80;7.35;;;;;;;5.90;76.31;100344.97;125204;1102;105170;-77
2021/03/19 09:35:32;;;;;;;13.88;6.95;;;;;;;5.79;76.15;100349.62;125236;1100;108151;-76
2021/03/19 09:38:03;;;;;;;12.57;6.37;;;;;;;5.69;76.42;100345.65;125302;1100;104428;-77
2021/03/19 09:40:48;;;;;;;15.30;7.00;;;;;;;5.65;76.20;100348.89;126024;1099;104159;-77
2021/03/19 09:43:38;;;;;;;12.73;5.97;;;;;;;5.67;76.58;100342.08;126080;1098;104146;-76
2021/03/19 09:46:20;;;;;;;13.90;6.97;;;;;;;5.71;76.39;100345.73;126049;1099;104434;-76
2021/03/19 09:49:02;;;;;;;12.17;6.33;;;;;;;5.77;75.97;100353.86;125993;1099;104149;-76
2021/03/19 09:51:41;;;;;;;12.93;6.43;;;;;;;5.81;76.25;100357.52;125215;1099;104284;-76
2021/03/19 09:54:26;;;;;;;16.73;6.90;;;;;;;5.84;76.33;100360.28;125952;1099;105492;-76
2021/03/19 09:57:00;;;;;;;12.63;6.50;;;;;;;5.92;76.08;100358.95;126110;1099;104152;-77
2021/03/19 09:59:34;;;;;;;13.90;6.40;;;;;;;6.06;76.44;100354.50;125304;1102;104364;-77
2021/03/19 10:02:21;;;;;;;15.03;6.95;;;;;;;6.15;75.90;100351.48;125916;1099;104184;-77
2021/03/19 10:04:50;;;;;;;12.87;6.60;;;;;;;6.15;75.56;100349.77;125214;1099;104222;-78
2021/03/19 10:07:23;;;;;;;10.93;6.00;;;;;;;6.17;75.36;100353.36;125290;1102;104280;-77
2021/03/19 10:09:54;;;;;;;9.73;5.67;;;;;;;6.22;75.38;100350.98;126061;1099;104150;-79
2021/03/19 10:12:28;;;;;;;11.33;5.63;;;;;;;6.36;75.48;100356.87;125950;1099;104303;-78
2021/03/19 10:15:12;;;;;;;12.40;6.10;;;;;;;6.44;75.84;100358.17;125748;1099;104270;-78
2021/03/19 10:17:50;;;;;;;12.15;5.90;;;;;;;6.58;75.45;100351.92;125791;1099;104181;-78
2021/03/19 10:20:22;;;;;;;12.17;6.07;;;;;;;6.74;75.32;100340.52;125180;1099;104315;-78
2021/03/19 10:22:54;;;;;;;12.23;5.73;;;;;;;7.01;75.75;100350.48;125181;1099;104224;-78
2021/03/19 10:25:35;;;;;;;12.80;5.90;;;;;;;7.22;75.32;100347.12;125720;1099;104171;-78
2021/03/19 10:28:08;;;;;;;12.00;5.93;;;;;;;7.26;75.00;100334.28;125054;1102;104289;-76
2021/03/19 10:30:52;;;;;;;11.23;6.03;;;;;;;7.30;74.80;100336.19;125988;1098;104307;-75
2021/03/19 10:33:24;;;;;;;11.23;5.13;;;;;;;7.24;74.58;100341.13;125916;1099;104207;-77
2021/03/19 10:36:05;;;;;;;12.63;6.00;;;;;;;7.12;74.54;100345.77;125772;1099;104181;-76
2021/03/19 10:38:41;;;;;;;10.87;5.37;;;;;;;7.00;74.54;100343.50;125740;1099;104312;-77
2021/03/19 10:41:25;;;;;;;11.40;5.67;;;;;;;6.88;74.52;100342.91;125850;1099;104191;-77
2021/03/19 10:44:06;;;;;;;10.27;5.17;;;;;;;6.75;74.36;100342.31;125761;1098;104152;-77
2021/03/19 10:46:45;;;;;;;8.57;4.83;;;;;;;6.63;73.97;100352.15;125722;1099;111795;-77
2021/03/19 10:49:18;;;;;;;7.50;4.60;;;;;;;6.47;73.87;100350.50;125827;1099;104299;-77
2021/03/19 10:51:53;;;;;;;7.62;4.40;;;;;;;6.30;73.73;100347.94;125851;1099;104169;-77
2021/03/19 10:54:28;;;;;;;8.00;4.63;;;;;;;6.19;73.58;100343.02;125874;1099;104187;-77
2021/03/19 10:57:05;;;;;;;9.13;5.10;;;;;;;6.07;73.98;100345.87;125966;1099;104301;-77
2021/03/19 10:59:39;;;;;;;8.83;4.20;;;;;;;5.90;73.95;100364.09;125821;1099;104248;-78
2021/03/19 11:02:21;;;;;;;9.17;4.33;;;;;;;5.49;73.39;100343.70;125761;1099;104303;-76
2021/03/19 11:05:08;;;;;;;10.70;4.93;;;;;;;5.21;73.70;100355.21;125614;1099;104178;-76
2021/03/19 11:07:42;;;;;;;7.70;4.13;;;;;;;4.98;73.68;100352.22;125676;1099;108664;-78
2021/03/19 11:10:19;;;;;;;8.53;4.13;;;;;;;4.93;73.87;100355.39;125759;1099;104299;-77
2021/03/19 11:12:54;;;;;;;7.03;3.63;;;;;;;4.94;73.61;100354.56;125069;1102;104213;-76
2021/03/19 11:15:38;;;;;;;6.07;3.70;;;;;;;4.95;73.77;100351.17;125733;1099;104181;-76
2021/03/19 11:18:19;;;;;;;8.38;3.75;;;;;;;5.00;73.67;100350.62;125790;1099;118867;-76
2021/03/19 11:20:59;;;;;;;11.33;4.60;;;;;;;5.11;73.85;100350.30;125939;1099;104303;-77
2021/03/19 11:23:34;;;;;;;6.20;3.50;;;;;;;5.28;73.93;100353.83;126013;1099;104248;-77
2021/03/19 11:26:20;;;;;;;4.60;3.30;;;;;;;5.42;74.06;100345.05;125897;1099;104146;-77
2021/03/19 11:29:09;;;;;;;6.87;4.37;;;;;;;5.54;73.68;100343.11;125709;1099;104178;-77
2021/03/19 11:31:57;;;;;;;10.67;4.93;;;;;;;5.62;73.95;100347.84;125187;1099;104152;-76
2021/03/19 11:34:32;;;;;;;10.43;5.10;;;;;;;5.63;73.70;100342.72;125221;1099;104184;-77
2021/03/19 11:37:05;;;;;;;15.10;5.17;;;;;;;5.60;73.71;100350.36;125143;1102;105427;-77
2021/03/19 11:39:43;;;;;;;8.77;4.70;;;;;;;5.56;73.72;100348.41;125107;1102;104232;-77
2021/03/19 11:42:15;;;;;;;6.63;4.27;;;;;;;5.44;73.90;100342.53;125959;1099;104197;-77
2021/03/19 11:44:47;;;;;;;9.87;4.83;;;;;;;5.31;73.37;100348.80;125991;1099;104751;-77
2021/03/19 11:47:21;;;;;;;11.07;4.80;;;;;;;5.28;73.19;100354.72;125073;1102;104291;-77
2021/03/19 11:49:55;;;;;;;9.77;4.60;;;;;;;5.27;73.27;100350.34;125125;1099;104146;-78
2021/03/19 11:52:24;;;;;;;7.00;4.20;;;;;;;5.32;72.90;100342.79;125174;1099;104338;-77
2021/03/19 11:54:54;;;;;;;7.77;4.10;;;;;;;5.40;73.47;100341.48;125115;1102;104201;-78